sensor_id;sensor_type;location;lat;lon;timestamp;temperature;humidity
39021;DHT22;25188;51.958;5.842;2023-12-28T00:00:58;10.40;94.90
39021;DHT22;25188;51.958;5.842;2023-12-28T00:03:24;10.40;95.00
39021;DHT22;25188;51.958;5.842;2023-12-28T00:05:50;10.40;95.10
39021;DHT22;25188;51.958;5.842;2023-12-28T00:08:15;10.40;95.20
39021;DHT22;25188;51.958;5.842;2023-12-28T00:10:41;10.40;95.30
39021;DHT22;25188;51.958;5.842;2023-12-28T00:13:07;10.40;95.40
39021;DHT22;25188;51.958;5.842;2023-12-28T00:15:32;10.40;95.50
39021;DHT22;25188;51.958;5.842;2023-12-28T00:17:58;10.40;95.60
39021;DHT22;25188;51.958;5.842;2023-12-28T00:20:24;10.40;95.80
39021;DHT22;25188;51.958;5.842;2023-12-28T00:22:50;10.40;96.00
39021;DHT22;25188;51.958;5.842;2023-12-28T00:25:15;10.30;96.10
39021;DHT22;25188;51.958;5.842;2023-12-28T00:27:41;10.40;96.20
39021;DHT22;25188;51.958;5.842;2023-12-28T00:30:07;10.40;96.30
39021;DHT22;25188;51.958;5.842;2023-12-28T00:32:33;10.40;96.50
39021;DHT22;25188;51.958;5.842;2023-12-28T00:34:58;10.40;96.60
39021;DHT22;25188;51.958;5.842;2023-12-28T00:37:37;10.40;96.80
39021;DHT22;25188;51.958;5.842;2023-12-28T00:40:03;10.40;96.90
39021;DHT22;25188;51.958;5.842;2023-12-28T00:42:29;10.40;97.10
39021;DHT22;25188;51.958;5.842;2023-12-28T00:44:55;10.40;97.20
39021;DHT22;25188;51.958;5.842;2023-12-28T00:47:20;10.40;97.40
39021;DHT22;25188;51.958;5.842;2023-12-28T00:49:46;10.40;97.50
39021;DHT22;25188;51.958;5.842;2023-12-28T00:52:12;10.40;97.60
39021;DHT22;25188;51.958;5.842;2023-12-28T00:54:38;10.40;97.70
39021;DHT22;25188;51.958;5.842;2023-12-28T00:57:04;10.40;97.80
39021;DHT22;25188;51.958;5.842;2023-12-28T00:59:30;10.50;97.90
39021;DHT22;25188;51.958;5.842;2023-12-28T01:01:56;10.50;97.90
39021;DHT22;25188;51.958;5.842;2023-12-28T01:04:22;10.50;98.00
39021;DHT22;25188;51.958;5.842;2023-12-28T01:06:51;10.50;98.10
39021;DHT22;25188;51.958;5.842;2023-12-28T01:09:18;10.50;98.10
39021;DHT22;25188;51.958;5.842;2023-12-28T01:11:44;10.50;98.20
39021;DHT22;25188;51.958;5.842;2023-12-28T01:14:09;10.50;98.20
39021;DHT22;25188;51.958;5.842;2023-12-28T01:16:35;10.60;98.30
39021;DHT22;25188;51.958;5.842;2023-12-28T01:19:01;10.50;98.40
39021;DHT22;25188;51.958;5.842;2023-12-28T01:21:27;10.50;98.50
39021;DHT22;25188;51.958;5.842;2023-12-28T01:23:54;10.50;98.50
39021;DHT22;25188;51.958;5.842;2023-12-28T01:26:20;10.50;98.60
39021;DHT22;25188;51.958;5.842;2023-12-28T01:28:46;10.50;98.70
39021;DHT22;25188;51.958;5.842;2023-12-28T01:31:12;10.50;98.80
39021;DHT22;25188;51.958;5.842;2023-12-28T01:33:37;10.50;98.90
39021;DHT22;25188;51.958;5.842;2023-12-28T01:36:17;10.40;98.90
39021;DHT22;25188;51.958;5.842;2023-12-28T01:38:43;10.40;99.10
39021;DHT22;25188;51.958;5.842;2023-12-28T01:41:09;10.40;99.30
39021;DHT22;25188;51.958;5.842;2023-12-28T01:43:35;10.40;99.50
39021;DHT22;25188;51.958;5.842;2023-12-28T01:46:01;10.40;99.70
39021;DHT22;25188;51.958;5.842;2023-12-28T01:48:28;10.40;99.80
39021;DHT22;25188;51.958;5.842;2023-12-28T01:50:54;10.40;99.90
39021;DHT22;25188;51.958;5.842;2023-12-28T01:53:20;10.40;99.90
39021;DHT22;25188;51.958;5.842;2023-12-28T01:55:46;10.40;99.90
39021;DHT22;25188;51.958;5.842;2023-12-28T01:58:12;10.40;99.90
39021;DHT22;25188;51.958;5.842;2023-12-28T02:00:38;10.40;99.90
39021;DHT22;25188;51.958;5.842;2023-12-28T02:03:06;10.40;99.90
39021;DHT22;25188;51.958;5.842;2023-12-28T02:05:32;10.40;99.90
39021;DHT22;25188;51.958;5.842;2023-12-28T02:07:58;10.30;99.90
39021;DHT22;25188;51.958;5.842;2023-12-28T02:10:25;10.30;99.90
39021;DHT22;25188;51.958;5.842;2023-12-28T02:12:52;10.30;99.90
39021;DHT22;25188;51.958;5.842;2023-12-28T02:15:19;10.30;99.90
39021;DHT22;25188;51.958;5.842;2023-12-28T02:17:53;10.30;99.90
39021;DHT22;25188;51.958;5.842;2023-12-28T02:20:21;10.20;99.90
39021;DHT22;25188;51.958;5.842;2023-12-28T02:22:46;10.20;99.90
39021;DHT22;25188;51.958;5.842;2023-12-28T02:25:13;10.20;99.90
39021;DHT22;25188;51.958;5.842;2023-12-28T02:27:44;10.20;99.90
39021;DHT22;25188;51.958;5.842;2023-12-28T02:30:12;10.20;99.90
39021;DHT22;25188;51.958;5.842;2023-12-28T02:37:53;10.20;99.90
39021;DHT22;25188;51.958;5.842;2023-12-28T02:40:21;10.20;99.90
39021;DHT22;25188;51.958;5.842;2023-12-28T02:42:47;10.20;99.90
39021;DHT22;25188;51.958;5.842;2023-12-28T02:45:13;10.20;99.90
39021;DHT22;25188;51.958;5.842;2023-12-28T02:47:39;10.20;99.90
39021;DHT22;25188;51.958;5.842;2023-12-28T02:50:05;10.20;99.90
39021;DHT22;25188;51.958;5.842;2023-12-28T02:52:31;10.20;99.90
39021;DHT22;25188;51.958;5.842;2023-12-28T02:54:58;10.20;99.90
39021;DHT22;25188;51.958;5.842;2023-12-28T02:57:24;10.20;99.90
39021;DHT22;25188;51.958;5.842;2023-12-28T02:59:49;10.20;99.90
39021;DHT22;25188;51.958;5.842;2023-12-28T03:02:15;10.20;99.90
39021;DHT22;25188;51.958;5.842;2023-12-28T03:04:41;10.20;99.90
39021;DHT22;25188;51.958;5.842;2023-12-28T03:07:08;10.20;99.90
39021;DHT22;25188;51.958;5.842;2023-12-28T03:09:34;10.20;99.90
39021;DHT22;25188;51.958;5.842;2023-12-28T03:12:00;10.20;99.90
39021;DHT22;25188;51.958;5.842;2023-12-28T03:14:26;10.20;99.90
39021;DHT22;25188;51.958;5.842;2023-12-28T03:16:51;10.20;99.90
39021;DHT22;25188;51.958;5.842;2023-12-28T03:19:17;10.20;99.90
39021;DHT22;25188;51.958;5.842;2023-12-28T03:21:43;10.20;99.90
39021;DHT22;25188;51.958;5.842;2023-12-28T03:24:09;10.20;99.90
39021;DHT22;25188;51.958;5.842;2023-12-28T03:26:38;10.30;99.90
39021;DHT22;25188;51.958;5.842;2023-12-28T03:29:08;10.30;99.90
39021;DHT22;25188;51.958;5.842;2023-12-28T03:31:33;10.20;99.90
39021;DHT22;25188;51.958;5.842;2023-12-28T03:33:59;10.20;99.90
39021;DHT22;25188;51.958;5.842;2023-12-28T03:36:25;10.30;99.90
39021;DHT22;25188;51.958;5.842;2023-12-28T03:38:51;10.30;99.90
39021;DHT22;25188;51.958;5.842;2023-12-28T03:41:20;10.30;99.90
39021;DHT22;25188;51.958;5.842;2023-12-28T03:43:46;10.40;99.90
39021;DHT22;25188;51.958;5.842;2023-12-28T03:46:12;10.40;99.90
39021;DHT22;25188;51.958;5.842;2023-12-28T03:48:39;10.40;99.90
39021;DHT22;25188;51.958;5.842;2023-12-28T03:51:05;10.50;99.90
39021;DHT22;25188;51.958;5.842;2023-12-28T03:53:31;10.50;99.90
39021;DHT22;25188;51.958;5.842;2023-12-28T03:55:59;10.50;99.90
39021;DHT22;25188;51.958;5.842;2023-12-28T03:58:25;10.60;99.90
39021;DHT22;25188;51.958;5.842;2023-12-28T04:00:51;10.60;99.90
39021;DHT22;25188;51.958;5.842;2023-12-28T04:03:17;10.60;99.90
39021;DHT22;25188;51.958;5.842;2023-12-28T04:05:43;10.60;99.90
39021;DHT22;25188;51.958;5.842;2023-12-28T04:08:09;10.60;99.90
39021;DHT22;25188;51.958;5.842;2023-12-28T04:10:35;10.60;99.90
39021;DHT22;25188;51.958;5.842;2023-12-28T04:13:03;10.60;99.90
39021;DHT22;25188;51.958;5.842;2023-12-28T04:15:29;10.60;99.90
39021;DHT22;25188;51.958;5.842;2023-12-28T04:17:55;10.60;99.90
39021;DHT22;25188;51.958;5.842;2023-12-28T04:20:20;10.60;99.90
39021;DHT22;25188;51.958;5.842;2023-12-28T04:22:46;10.60;99.90
39021;DHT22;25188;51.958;5.842;2023-12-28T04:25:12;10.60;99.90
39021;DHT22;25188;51.958;5.842;2023-12-28T04:27:38;10.60;99.90
39021;DHT22;25188;51.958;5.842;2023-12-28T04:30:05;10.60;99.90
39021;DHT22;25188;51.958;5.842;2023-12-28T04:32:32;10.70;99.90
39021;DHT22;25188;51.958;5.842;2023-12-28T04:34:57;10.60;99.90
39021;DHT22;25188;51.958;5.842;2023-12-28T04:37:23;10.70;99.90
39021;DHT22;25188;51.958;5.842;2023-12-28T04:39:49;10.70;99.90
39021;DHT22;25188;51.958;5.842;2023-12-28T04:42:15;10.60;99.90
39021;DHT22;25188;51.958;5.842;2023-12-28T04:44:40;10.60;99.90
39021;DHT22;25188;51.958;5.842;2023-12-28T04:47:06;10.60;99.90
39021;DHT22;25188;51.958;5.842;2023-12-28T04:49:32;10.60;99.90
39021;DHT22;25188;51.958;5.842;2023-12-28T04:51:57;10.60;99.90
39021;DHT22;25188;51.958;5.842;2023-12-28T04:54:23;10.60;99.90
39021;DHT22;25188;51.958;5.842;2023-12-28T04:56:49;10.60;99.90
39021;DHT22;25188;51.958;5.842;2023-12-28T04:59:15;10.60;99.90
39021;DHT22;25188;51.958;5.842;2023-12-28T05:01:43;10.60;99.90
39021;DHT22;25188;51.958;5.842;2023-12-28T05:04:10;10.60;99.90
39021;DHT22;25188;51.958;5.842;2023-12-28T05:06:35;10.70;99.90
39021;DHT22;25188;51.958;5.842;2023-12-28T05:09:01;10.70;99.90
39021;DHT22;25188;51.958;5.842;2023-12-28T05:11:27;10.70;99.90
39021;DHT22;25188;51.958;5.842;2023-12-28T05:13:53;10.70;99.90
39021;DHT22;25188;51.958;5.842;2023-12-28T05:16:20;10.80;99.90
39021;DHT22;25188;51.958;5.842;2023-12-28T05:18:46;10.80;99.90
39021;DHT22;25188;51.958;5.842;2023-12-28T05:21:12;10.80;99.90
39021;DHT22;25188;51.958;5.842;2023-12-28T05:23:38;10.80;99.90
39021;DHT22;25188;51.958;5.842;2023-12-28T05:26:04;10.80;99.90
39021;DHT22;25188;51.958;5.842;2023-12-28T05:28:30;10.90;99.90
39021;DHT22;25188;51.958;5.842;2023-12-28T05:30:55;10.90;99.90
39021;DHT22;25188;51.958;5.842;2023-12-28T05:33:21;10.90;99.80
39021;DHT22;25188;51.958;5.842;2023-12-28T05:35:48;10.90;99.70
39021;DHT22;25188;51.958;5.842;2023-12-28T05:38:14;10.90;99.70
39021;DHT22;25188;51.958;5.842;2023-12-28T05:40:39;11.00;99.60
39021;DHT22;25188;51.958;5.842;2023-12-28T05:43:05;11.00;99.30
39021;DHT22;25188;51.958;5.842;2023-12-28T05:45:31;11.00;99.10
39021;DHT22;25188;51.958;5.842;2023-12-28T05:47:57;11.00;99.00
39021;DHT22;25188;51.958;5.842;2023-12-28T05:50:22;11.10;98.80
39021;DHT22;25188;51.958;5.842;2023-12-28T05:52:48;11.00;98.70
39021;DHT22;25188;51.958;5.842;2023-12-28T05:55:14;11.10;98.40
39021;DHT22;25188;51.958;5.842;2023-12-28T05:57:39;11.10;98.40
39021;DHT22;25188;51.958;5.842;2023-12-28T06:00:06;11.10;98.10
39021;DHT22;25188;51.958;5.842;2023-12-28T06:02:32;11.10;98.10
39021;DHT22;25188;51.958;5.842;2023-12-28T06:04:57;11.20;97.90
39021;DHT22;25188;51.958;5.842;2023-12-28T06:07:23;11.10;97.70
39021;DHT22;25188;51.958;5.842;2023-12-28T06:09:49;11.20;97.80
39021;DHT22;25188;51.958;5.842;2023-12-28T06:12:15;11.20;97.50
39021;DHT22;25188;51.958;5.842;2023-12-28T06:14:41;11.20;97.50
39021;DHT22;25188;51.958;5.842;2023-12-28T06:17:07;11.20;97.40
39021;DHT22;25188;51.958;5.842;2023-12-28T06:19:33;11.20;97.30
39021;DHT22;25188;51.958;5.842;2023-12-28T06:21:58;11.20;97.10
39021;DHT22;25188;51.958;5.842;2023-12-28T06:24:24;11.20;97.10
39021;DHT22;25188;51.958;5.842;2023-12-28T06:26:50;11.30;97.10
39021;DHT22;25188;51.958;5.842;2023-12-28T06:29:16;11.30;97.00
39021;DHT22;25188;51.958;5.842;2023-12-28T06:31:41;11.30;96.90
39021;DHT22;25188;51.958;5.842;2023-12-28T06:34:07;11.30;97.00
39021;DHT22;25188;51.958;5.842;2023-12-28T06:36:33;11.30;96.90
39021;DHT22;25188;51.958;5.842;2023-12-28T06:38:59;11.20;96.80
39021;DHT22;25188;51.958;5.842;2023-12-28T06:41:25;11.30;96.80
39021;DHT22;25188;51.958;5.842;2023-12-28T06:43:52;11.30;96.80
39021;DHT22;25188;51.958;5.842;2023-12-28T06:46:18;11.30;96.70
39021;DHT22;25188;51.958;5.842;2023-12-28T06:48:44;11.30;96.60
39021;DHT22;25188;51.958;5.842;2023-12-28T06:51:19;11.30;96.50
39021;DHT22;25188;51.958;5.842;2023-12-28T06:53:45;11.30;96.60
39021;DHT22;25188;51.958;5.842;2023-12-28T06:56:11;11.30;96.50
39021;DHT22;25188;51.958;5.842;2023-12-28T06:58:37;11.30;96.50
39021;DHT22;25188;51.958;5.842;2023-12-28T07:01:04;11.30;96.50
39021;DHT22;25188;51.958;5.842;2023-12-28T07:03:29;11.30;96.40
39021;DHT22;25188;51.958;5.842;2023-12-28T07:06:01;11.30;96.30
39021;DHT22;25188;51.958;5.842;2023-12-28T07:08:28;11.30;96.30
39021;DHT22;25188;51.958;5.842;2023-12-28T07:10:54;11.30;96.40
39021;DHT22;25188;51.958;5.842;2023-12-28T07:13:20;11.30;96.40
39021;DHT22;25188;51.958;5.842;2023-12-28T07:15:45;11.30;96.10
39021;DHT22;25188;51.958;5.842;2023-12-28T07:18:11;11.30;96.10
39021;DHT22;25188;51.958;5.842;2023-12-28T07:20:37;11.40;96.00
39021;DHT22;25188;51.958;5.842;2023-12-28T07:23:03;11.40;96.00
39021;DHT22;25188;51.958;5.842;2023-12-28T07:25:29;11.30;95.80
39021;DHT22;25188;51.958;5.842;2023-12-28T07:27:55;11.30;95.70
39021;DHT22;25188;51.958;5.842;2023-12-28T07:30:20;11.30;96.00
39021;DHT22;25188;51.958;5.842;2023-12-28T07:32:46;11.40;95.70
39021;DHT22;25188;51.958;5.842;2023-12-28T07:35:12;11.30;95.60
39021;DHT22;25188;51.958;5.842;2023-12-28T07:37:38;11.30;95.70
39021;DHT22;25188;51.958;5.842;2023-12-28T07:40:03;11.30;95.80
39021;DHT22;25188;51.958;5.842;2023-12-28T07:42:29;11.30;95.90
39021;DHT22;25188;51.958;5.842;2023-12-28T07:44:55;11.30;95.90
39021;DHT22;25188;51.958;5.842;2023-12-28T07:47:21;11.20;95.80
39021;DHT22;25188;51.958;5.842;2023-12-28T07:49:47;11.20;95.80
39021;DHT22;25188;51.958;5.842;2023-12-28T07:52:12;11.20;95.90
39021;DHT22;25188;51.958;5.842;2023-12-28T07:54:38;11.20;95.80
39021;DHT22;25188;51.958;5.842;2023-12-28T07:57:04;11.10;95.80
39021;DHT22;25188;51.958;5.842;2023-12-28T07:59:30;11.10;95.90
39021;DHT22;25188;51.958;5.842;2023-12-28T08:01:56;11.20;95.90
39021;DHT22;25188;51.958;5.842;2023-12-28T08:04:22;11.20;95.90
39021;DHT22;25188;51.958;5.842;2023-12-28T08:06:48;11.20;95.70
39021;DHT22;25188;51.958;5.842;2023-12-28T08:09:14;11.20;95.70
39021;DHT22;25188;51.958;5.842;2023-12-28T08:11:39;11.20;95.60
39021;DHT22;25188;51.958;5.842;2023-12-28T08:14:05;11.30;95.60
39021;DHT22;25188;51.958;5.842;2023-12-28T08:16:31;11.30;95.70
39021;DHT22;25188;51.958;5.842;2023-12-28T08:18:57;11.30;95.60
39021;DHT22;25188;51.958;5.842;2023-12-28T08:21:22;11.30;95.50
39021;DHT22;25188;51.958;5.842;2023-12-28T08:23:48;11.30;95.60
39021;DHT22;25188;51.958;5.842;2023-12-28T08:26:14;11.40;95.50
39021;DHT22;25188;51.958;5.842;2023-12-28T08:28:40;11.40;95.50
39021;DHT22;25188;51.958;5.842;2023-12-28T08:31:05;11.40;95.50
39021;DHT22;25188;51.958;5.842;2023-12-28T08:33:33;11.40;95.50
39021;DHT22;25188;51.958;5.842;2023-12-28T08:36:02;11.40;95.50
39021;DHT22;25188;51.958;5.842;2023-12-28T08:38:28;11.50;95.30
39021;DHT22;25188;51.958;5.842;2023-12-28T08:40:54;11.50;95.20
39021;DHT22;25188;51.958;5.842;2023-12-28T08:43:19;11.50;95.20
39021;DHT22;25188;51.958;5.842;2023-12-28T08:45:45;11.60;95.10
39021;DHT22;25188;51.958;5.842;2023-12-28T08:48:11;11.60;95.20
39021;DHT22;25188;51.958;5.842;2023-12-28T08:50:36;11.60;95.20
39021;DHT22;25188;51.958;5.842;2023-12-28T08:53:02;11.60;94.90
39021;DHT22;25188;51.958;5.842;2023-12-28T08:55:28;11.60;94.80
39021;DHT22;25188;51.958;5.842;2023-12-28T08:57:54;11.60;94.70
39021;DHT22;25188;51.958;5.842;2023-12-28T09:00:19;11.60;94.70
39021;DHT22;25188;51.958;5.842;2023-12-28T09:02:45;11.60;94.70
39021;DHT22;25188;51.958;5.842;2023-12-28T09:05:10;11.60;94.60
39021;DHT22;25188;51.958;5.842;2023-12-28T09:07:36;11.60;94.70
39021;DHT22;25188;51.958;5.842;2023-12-28T09:10:09;11.60;94.60
39021;DHT22;25188;51.958;5.842;2023-12-28T09:12:35;11.60;94.60
39021;DHT22;25188;51.958;5.842;2023-12-28T09:15:01;11.60;94.50
39021;DHT22;25188;51.958;5.842;2023-12-28T09:17:26;11.60;94.50
39021;DHT22;25188;51.958;5.842;2023-12-28T09:19:52;11.60;94.50
39021;DHT22;25188;51.958;5.842;2023-12-28T09:22:18;11.60;94.40
39021;DHT22;25188;51.958;5.842;2023-12-28T09:24:43;11.60;94.60
39021;DHT22;25188;51.958;5.842;2023-12-28T09:27:09;11.60;94.50
39021;DHT22;25188;51.958;5.842;2023-12-28T09:29:34;11.60;94.50
39021;DHT22;25188;51.958;5.842;2023-12-28T09:32:00;11.60;94.40
39021;DHT22;25188;51.958;5.842;2023-12-28T09:34:28;11.60;94.60
39021;DHT22;25188;51.958;5.842;2023-12-28T09:36:54;11.70;94.40
39021;DHT22;25188;51.958;5.842;2023-12-28T09:39:19;11.70;94.30
39021;DHT22;25188;51.958;5.842;2023-12-28T09:41:52;11.70;94.00
39021;DHT22;25188;51.958;5.842;2023-12-28T09:44:21;11.80;93.90
39021;DHT22;25188;51.958;5.842;2023-12-28T09:46:48;11.80;94.00
39021;DHT22;25188;51.958;5.842;2023-12-28T09:49:13;11.80;93.70
39021;DHT22;25188;51.958;5.842;2023-12-28T09:51:39;11.80;93.70
39021;DHT22;25188;51.958;5.842;2023-12-28T09:54:05;11.80;93.80
39021;DHT22;25188;51.958;5.842;2023-12-28T09:56:32;11.90;93.90
39021;DHT22;25188;51.958;5.842;2023-12-28T09:58:59;12.00;94.00
39021;DHT22;25188;51.958;5.842;2023-12-28T10:01:25;12.20;93.70
39021;DHT22;25188;51.958;5.842;2023-12-28T10:03:51;12.30;93.20
39021;DHT22;25188;51.958;5.842;2023-12-28T10:06:16;12.40;92.80
39021;DHT22;25188;51.958;5.842;2023-12-28T10:08:46;12.30;92.80
39021;DHT22;25188;51.958;5.842;2023-12-28T10:11:18;12.30;92.70
39021;DHT22;25188;51.958;5.842;2023-12-28T10:13:44;12.30;92.50
39021;DHT22;25188;51.958;5.842;2023-12-28T10:16:11;12.20;92.50
39021;DHT22;25188;51.958;5.842;2023-12-28T10:18:41;12.20;92.40
39021;DHT22;25188;51.958;5.842;2023-12-28T10:21:08;12.20;92.40
39021;DHT22;25188;51.958;5.842;2023-12-28T10:23:34;12.20;92.60
39021;DHT22;25188;51.958;5.842;2023-12-28T10:26:00;12.20;92.30
39021;DHT22;25188;51.958;5.842;2023-12-28T10:28:26;12.20;92.20
39021;DHT22;25188;51.958;5.842;2023-12-28T10:30:58;12.20;92.20
39021;DHT22;25188;51.958;5.842;2023-12-28T10:33:23;12.20;92.10
39021;DHT22;25188;51.958;5.842;2023-12-28T10:35:50;12.20;92.30
39021;DHT22;25188;51.958;5.842;2023-12-28T10:38:17;12.30;92.10
39021;DHT22;25188;51.958;5.842;2023-12-28T10:40:44;12.30;91.90
39021;DHT22;25188;51.958;5.842;2023-12-28T10:43:14;12.40;92.00
39021;DHT22;25188;51.958;5.842;2023-12-28T10:45:41;12.50;91.80
39021;DHT22;25188;51.958;5.842;2023-12-28T10:48:11;12.60;91.70
39021;DHT22;25188;51.958;5.842;2023-12-28T10:50:43;12.60;91.20
39021;DHT22;25188;51.958;5.842;2023-12-28T11:01:38;12.80;90.60
39021;DHT22;25188;51.958;5.842;2023-12-28T11:06:48;12.90;90.60
39021;DHT22;25188;51.958;5.842;2023-12-28T11:09:15;12.90;90.60
39021;DHT22;25188;51.958;5.842;2023-12-28T11:11:43;13.00;90.30
39021;DHT22;25188;51.958;5.842;2023-12-28T11:14:09;13.00;89.90
39021;DHT22;25188;51.958;5.842;2023-12-28T11:16:35;13.00;88.90
39021;DHT22;25188;51.958;5.842;2023-12-28T11:19:03;13.00;88.70
39021;DHT22;25188;51.958;5.842;2023-12-28T11:21:30;13.00;88.50
39021;DHT22;25188;51.958;5.842;2023-12-28T11:23:56;13.00;88.50
39021;DHT22;25188;51.958;5.842;2023-12-28T11:26:22;12.90;88.90
39021;DHT22;25188;51.958;5.842;2023-12-28T11:28:49;12.90;88.90
39021;DHT22;25188;51.958;5.842;2023-12-28T11:31:15;12.90;88.90
39021;DHT22;25188;51.958;5.842;2023-12-28T11:33:50;12.80;89.40
39021;DHT22;25188;51.958;5.842;2023-12-28T11:36:23;12.80;89.50
39021;DHT22;25188;51.958;5.842;2023-12-28T11:38:53;12.70;89.50
39021;DHT22;25188;51.958;5.842;2023-12-28T11:41:20;12.80;89.20
39021;DHT22;25188;51.958;5.842;2023-12-28T11:43:54;12.70;89.40
39021;DHT22;25188;51.958;5.842;2023-12-28T11:46:20;12.70;89.60
39021;DHT22;25188;51.958;5.842;2023-12-28T11:48:46;12.70;89.10
39021;DHT22;25188;51.958;5.842;2023-12-28T11:51:12;12.70;89.50
39021;DHT22;25188;51.958;5.842;2023-12-28T11:53:38;12.70;89.70
39021;DHT22;25188;51.958;5.842;2023-12-28T11:56:05;12.60;89.80
39021;DHT22;25188;51.958;5.842;2023-12-28T11:58:35;12.60;90.00
39021;DHT22;25188;51.958;5.842;2023-12-28T12:01:02;12.60;89.90
39021;DHT22;25188;51.958;5.842;2023-12-28T12:03:28;12.50;90.00
39021;DHT22;25188;51.958;5.842;2023-12-28T12:05:55;12.50;90.20
39021;DHT22;25188;51.958;5.842;2023-12-28T12:08:23;12.50;90.20
39021;DHT22;25188;51.958;5.842;2023-12-28T12:10:59;12.50;90.20
39021;DHT22;25188;51.958;5.842;2023-12-28T12:13:24;12.50;90.30
39021;DHT22;25188;51.958;5.842;2023-12-28T12:15:51;12.40;90.20
39021;DHT22;25188;51.958;5.842;2023-12-28T12:18:17;12.40;90.30
39021;DHT22;25188;51.958;5.842;2023-12-28T12:20:43;12.40;90.40
39021;DHT22;25188;51.958;5.842;2023-12-28T12:23:09;12.30;90.40
39021;DHT22;25188;51.958;5.842;2023-12-28T12:32:13;12.30;90.50
39021;DHT22;25188;51.958;5.842;2023-12-28T12:34:39;12.30;90.40
39021;DHT22;25188;51.958;5.842;2023-12-28T12:37:05;12.30;90.50
39021;DHT22;25188;51.958;5.842;2023-12-28T12:39:31;12.30;90.50
39021;DHT22;25188;51.958;5.842;2023-12-28T12:41:58;12.30;90.50
39021;DHT22;25188;51.958;5.842;2023-12-28T12:44:23;12.30;90.50
39021;DHT22;25188;51.958;5.842;2023-12-28T12:46:57;12.30;90.40
39021;DHT22;25188;51.958;5.842;2023-12-28T12:49:23;12.30;90.60
39021;DHT22;25188;51.958;5.842;2023-12-28T12:51:49;12.30;90.60
39021;DHT22;25188;51.958;5.842;2023-12-28T12:54:17;12.30;90.60
39021;DHT22;25188;51.958;5.842;2023-12-28T12:56:45;12.30;90.60
39021;DHT22;25188;51.958;5.842;2023-12-28T12:59:11;12.30;90.50
39021;DHT22;25188;51.958;5.842;2023-12-28T13:01:43;12.30;90.70
39021;DHT22;25188;51.958;5.842;2023-12-28T13:04:09;12.40;90.60
39021;DHT22;25188;51.958;5.842;2023-12-28T13:06:35;12.40;90.60
39021;DHT22;25188;51.958;5.842;2023-12-28T13:09:01;12.40;90.50
39021;DHT22;25188;51.958;5.842;2023-12-28T13:11:26;12.50;90.70
39021;DHT22;25188;51.958;5.842;2023-12-28T13:13:53;12.40;90.40
39021;DHT22;25188;51.958;5.842;2023-12-28T13:16:18;12.40;90.50
39021;DHT22;25188;51.958;5.842;2023-12-28T13:18:44;12.40;90.50
39021;DHT22;25188;51.958;5.842;2023-12-28T13:21:10;12.40;90.50
39021;DHT22;25188;51.958;5.842;2023-12-28T13:23:35;12.30;90.40
39021;DHT22;25188;51.958;5.842;2023-12-28T13:26:01;12.30;90.50
39021;DHT22;25188;51.958;5.842;2023-12-28T13:28:27;12.30;90.40
39021;DHT22;25188;51.958;5.842;2023-12-28T13:30:52;12.20;90.40
39021;DHT22;25188;51.958;5.842;2023-12-28T13:33:21;12.20;90.60
39021;DHT22;25188;51.958;5.842;2023-12-28T13:35:47;12.20;90.60
39021;DHT22;25188;51.958;5.842;2023-12-28T13:38:13;12.20;90.70
39021;DHT22;25188;51.958;5.842;2023-12-28T13:40:38;12.10;90.80
39021;DHT22;25188;51.958;5.842;2023-12-28T13:43:04;12.10;90.90
39021;DHT22;25188;51.958;5.842;2023-12-28T13:45:30;12.10;91.00
39021;DHT22;25188;51.958;5.842;2023-12-28T13:47:55;12.10;90.90
39021;DHT22;25188;51.958;5.842;2023-12-28T13:50:21;12.00;90.90
39021;DHT22;25188;51.958;5.842;2023-12-28T13:52:47;12.10;91.10
39021;DHT22;25188;51.958;5.842;2023-12-28T13:55:13;12.10;90.90
39021;DHT22;25188;51.958;5.842;2023-12-28T13:57:38;12.00;90.90
39021;DHT22;25188;51.958;5.842;2023-12-28T14:00:05;12.00;90.90
39021;DHT22;25188;51.958;5.842;2023-12-28T14:02:31;12.00;90.90
39021;DHT22;25188;51.958;5.842;2023-12-28T14:04:56;12.00;91.00
39021;DHT22;25188;51.958;5.842;2023-12-28T14:07:23;12.00;90.90
39021;DHT22;25188;51.958;5.842;2023-12-28T14:09:49;12.00;91.00
39021;DHT22;25188;51.958;5.842;2023-12-28T14:12:14;12.00;90.90
39021;DHT22;25188;51.958;5.842;2023-12-28T14:14:40;12.00;91.00
39021;DHT22;25188;51.958;5.842;2023-12-28T14:17:06;12.00;91.00
39021;DHT22;25188;51.958;5.842;2023-12-28T14:19:32;12.00;91.10
39021;DHT22;25188;51.958;5.842;2023-12-28T14:21:58;12.00;90.90
39021;DHT22;25188;51.958;5.842;2023-12-28T14:24:24;12.00;91.00
39021;DHT22;25188;51.958;5.842;2023-12-28T14:26:53;12.00;91.10
39021;DHT22;25188;51.958;5.842;2023-12-28T14:29:20;12.00;91.20
39021;DHT22;25188;51.958;5.842;2023-12-28T14:31:46;12.00;91.30
39021;DHT22;25188;51.958;5.842;2023-12-28T14:34:13;11.90;91.30
39021;DHT22;25188;51.958;5.842;2023-12-28T14:36:39;11.90;91.30
39021;DHT22;25188;51.958;5.842;2023-12-28T14:39:06;11.90;91.40
39021;DHT22;25188;51.958;5.842;2023-12-28T14:41:33;11.90;91.40
39021;DHT22;25188;51.958;5.842;2023-12-28T14:43:59;11.90;91.40
39021;DHT22;25188;51.958;5.842;2023-12-28T14:46:25;11.80;91.50
39021;DHT22;25188;51.958;5.842;2023-12-28T14:48:52;11.80;91.50
39021;DHT22;25188;51.958;5.842;2023-12-28T14:51:21;11.80;91.60
39021;DHT22;25188;51.958;5.842;2023-12-28T14:53:47;11.80;91.70
39021;DHT22;25188;51.958;5.842;2023-12-28T14:56:13;11.80;91.70
39021;DHT22;25188;51.958;5.842;2023-12-28T14:58:40;11.80;91.80
39021;DHT22;25188;51.958;5.842;2023-12-28T15:01:10;11.70;91.70
39021;DHT22;25188;51.958;5.842;2023-12-28T15:03:36;11.70;91.80
39021;DHT22;25188;51.958;5.842;2023-12-28T15:06:04;11.80;91.90
39021;DHT22;25188;51.958;5.842;2023-12-28T15:08:30;11.70;91.90
39021;DHT22;25188;51.958;5.842;2023-12-28T15:10:56;11.70;91.80
39021;DHT22;25188;51.958;5.842;2023-12-28T15:13:22;11.70;91.90
39021;DHT22;25188;51.958;5.842;2023-12-28T15:15:48;11.70;91.90
39021;DHT22;25188;51.958;5.842;2023-12-28T15:18:14;11.70;91.90
39021;DHT22;25188;51.958;5.842;2023-12-28T15:20:44;11.70;91.90
39021;DHT22;25188;51.958;5.842;2023-12-28T15:23:09;11.70;91.90
39021;DHT22;25188;51.958;5.842;2023-12-28T15:25:35;11.70;91.80
39021;DHT22;25188;51.958;5.842;2023-12-28T15:28:01;11.70;91.90
39021;DHT22;25188;51.958;5.842;2023-12-28T15:30:27;11.70;91.90
39021;DHT22;25188;51.958;5.842;2023-12-28T15:32:52;11.70;91.90
39021;DHT22;25188;51.958;5.842;2023-12-28T15:35:18;11.70;91.70
39021;DHT22;25188;51.958;5.842;2023-12-28T15:37:44;11.70;91.80
39021;DHT22;25188;51.958;5.842;2023-12-28T15:40:10;11.70;91.70
39021;DHT22;25188;51.958;5.842;2023-12-28T15:42:35;11.70;91.80
39021;DHT22;25188;51.958;5.842;2023-12-28T15:45:03;11.70;91.80
39021;DHT22;25188;51.958;5.842;2023-12-28T15:47:29;11.70;91.70